Time;durP1;ratioP1;P1;durP2;ratioP2;P2;SDS_P1;SDS_P2;PMS_P1;PMS_P2;Temp;Humidity;BMP_temperature;BMP_pressure;BME280_temperature;BME280_humidity;BME280_pressure;Samples;Min_cycle;Max_cycle;Signal;HPM_P1;HPM_P2
2021/12/27 00:00:04;;;;;;;2.05;1.45;;;18.30;39.00;;;;;;5130057;27;20170;-84
2021/12/27 00:02:30;;;;;;;1.40;1.25;;;18.40;39.20;;;;;;5130047;27;20160;-84
2021/12/27 00:04:58;;;;;;;2.65;1.40;;;18.30;39.10;;;;;;5129787;27;20195;-85
2021/12/27 00:07:24;;;;;;;2.45;1.55;;;18.30;39.20;;;;;;5130255;27;20184;-85
2021/12/27 00:09:51;;;;;;;1.75;1.33;;;18.30;39.00;;;;;;5112566;27;20653;-85
2021/12/27 00:12:17;;;;;;;2.10;1.35;;;18.30;39.20;;;;;;5129160;27;20209;-84
2021/12/27 00:14:45;;;;;;;1.73;1.50;;;18.30;39.30;;;;;;5129058;27;20160;-84
2021/12/27 00:17:10;;;;;;;2.75;1.40;;;18.30;39.50;;;;;;5129583;27;20621;-84
2021/12/27 00:19:37;;;;;;;1.95;1.27;;;18.20;39.40;;;;;;5129565;27;20163;-84
2021/12/27 00:22:03;;;;;;;1.83;1.40;;;18.30;39.30;;;;;;5129324;27;20666;-84
2021/12/27 00:24:29;;;;;;;1.63;1.40;;;18.20;39.40;;;;;;5129588;27;20250;-84
2021/12/27 00:26:55;;;;;;;2.80;1.55;;;18.20;39.30;;;;;;5129554;27;20497;-84
2021/12/27 00:29:21;;;;;;;1.77;1.30;;;18.20;39.30;;;;;;5129409;27;20179;-84
2021/12/27 00:31:49;;;;;;;1.70;1.30;;;18.20;39.20;;;;;;5129293;27;20182;-84
2021/12/27 00:34:15;;;;;;;1.77;1.23;;;18.20;39.20;;;;;;5128726;27;20166;-84
2021/12/27 00:36:41;;;;;;;1.40;1.30;;;18.20;39.40;;;;;;5129052;28;20155;-84
2021/12/27 00:39:08;;;;;;;1.42;1.33;;;18.20;39.30;;;;;;5129461;28;20186;-84
2021/12/27 00:41:33;;;;;;;1.75;1.48;;;18.20;39.20;;;;;;5128849;28;20190;-84
2021/12/27 00:43:59;;;;;;;2.53;1.70;;;18.20;39.30;;;;;;5129500;28;20510;-84
2021/12/27 00:46:25;;;;;;;1.63;1.35;;;18.20;39.30;;;;;;5119504;28;20230;-84
2021/12/27 00:48:51;;;;;;;1.60;1.50;;;18.20;39.40;;;;;;5108476;28;20184;-84
2021/12/27 00:51:16;;;;;;;1.95;1.52;;;18.20;39.30;;;;;;5109257;28;20175;-84
2021/12/27 00:53:44;;;;;;;2.67;1.55;;;18.20;39.40;;;;;;5109288;28;20168;-84
2021/12/27 00:56:12;;;;;;;1.48;1.30;;;18.20;39.40;;;;;;5108707;28;20184;-84
2021/12/27 00:58:38;;;;;;;2.03;1.40;;;18.20;39.40;;;;;;5126312;28;20249;-84
2021/12/27 01:01:04;;;;;;;1.50;1.40;;;18.20;39.40;;;;;;5092072;28;20195;-85
2021/12/27 01:03:35;;;;;;;3.22;1.40;;;18.20;39.30;;;;;;5090911;28;20175;-84
2021/12/27 01:06:02;;;;;;;2.00;1.45;;;18.10;39.50;;;;;;5126379;28;20153;-84
2021/12/27 01:08:37;;;;;;;1.60;1.23;;;18.20;39.40;;;;;;5108933;28;20234;-84
2021/12/27 01:14:09;;;;;;;2.50;1.63;;;18.10;39.60;;;;;;5111716;28;20226;-85
2021/12/27 01:16:34;;;;;;;2.95;1.40;;;18.10;39.60;;;;;;5110111;28;20562;-84
2021/12/27 01:19:00;;;;;;;2.10;1.58;;;18.10;39.50;;;;;;5107882;28;20172;-84
2021/12/27 01:21:26;;;;;;;2.47;1.35;;;18.10;39.50;;;;;;5108988;28;20174;-84
2021/12/27 01:23:54;;;;;;;1.95;1.45;;;18.10;39.50;;;;;;5108717;28;20671;-84
2021/12/27 01:26:22;;;;;;;2.55;1.63;;;18.10;39.50;;;;;;5108595;28;20152;-84
2021/12/27 01:28:49;;;;;;;2.13;1.50;;;18.10;39.60;;;;;;5108400;28;20203;-85
2021/12/27 01:31:15;;;;;;;1.45;1.25;;;18.10;40.20;;;;;;5108401;28;20239;-84
2021/12/27 01:33:40;;;;;;;1.60;1.30;;;18.00;39.40;;;;;;5091299;28;20233;-84
2021/12/27 01:36:09;;;;;;;1.42;1.30;;;18.10;39.30;;;;;;5107814;28;20182;-84
2021/12/27 01:38:36;;;;;;;2.88;1.50;;;18.00;39.20;;;;;;5108225;28;20160;-84
2021/12/27 01:41:02;;;;;;;1.60;1.35;;;18.10;39.70;;;;;;5108071;28;20155;-84
2021/12/27 01:43:29;;;;;;;1.85;1.50;;;18.10;39.70;;;;;;5108220;28;20168;-84
2021/12/27 01:45:59;;;;;;;2.10;1.42;;;18.00;39.60;;;;;;5108436;28;20203;-84
2021/12/27 01:48:30;;;;;;;1.67;1.38;;;18.00;39.70;;;;;;5111137;28;20271;-84
2021/12/27 01:50:56;;;;;;;1.65;1.33;;;17.90;39.60;;;;;;5111436;28;20175;-84
2021/12/27 01:53:29;;;;;;;1.75;1.33;;;18.00;39.50;;;;;;5111792;28;20175;-84
2021/12/27 01:56:05;;;;;;;1.85;1.30;;;18.00;39.60;;;;;;5130288;28;20152;-85
2021/12/27 01:58:31;;;;;;;2.15;1.42;;;17.90;39.80;;;;;;5128848;28;20213;-84
2021/12/27 02:00:58;;;;;;;1.95;1.70;;;17.90;39.80;;;;;;5111827;28;20586;-84
2021/12/27 02:03:27;;;;;;;2.33;1.42;;;17.90;39.80;;;;;;5112088;28;20151;-84
2021/12/27 02:05:53;;;;;;;2.83;1.60;;;17.90;39.60;;;;;;5111243;28;20239;-84
2021/12/27 02:08:19;;;;;;;2.00;1.40;;;17.90;39.70;;;;;;5111180;28;20168;-84
2021/12/27 02:10:46;;;;;;;1.67;1.40;;;18.00;39.60;;;;;;5112014;28;20152;-84
2021/12/27 02:13:12;;;;;;;2.08;1.50;;;17.90;39.50;;;;;;5110952;28;20711;-84
2021/12/27 02:15:39;;;;;;;2.15;1.15;;;17.90;39.70;;;;;;5094119;28;20168;-85
2021/12/27 02:18:04;;;;;;;1.63;1.40;;;17.90;39.80;;;;;;5111371;28;20160;-84
2021/12/27 02:20:36;;;;;;;2.08;1.50;;;17.80;39.80;;;;;;5110961;28;20171;-84
2021/12/27 02:23:07;;;;;;;1.85;1.33;;;17.90;39.90;;;;;;5093701;28;20187;-84
2021/12/27 02:25:34;;;;;;;2.72;1.70;;;17.80;40.00;;;;;;5111398;28;20166;-84
2021/12/27 02:28:02;;;;;;;1.75;1.40;;;17.80;39.80;;;;;;5110768;28;20167;-84
2021/12/27 02:30:32;;;;;;;1.80;1.30;;;17.90;39.80;;;;;;5111154;28;20249;-85
2021/12/27 02:33:03;;;;;;;1.65;1.20;;;17.80;39.80;;;;;;5111271;28;20148;-84
2021/12/27 02:35:32;;;;;;;1.75;1.60;;;17.90;39.60;;;;;;5111311;28;20183;-84
2021/12/27 02:37:59;;;;;;;1.60;1.48;;;17.90;39.40;;;;;;5094305;28;20176;-84
2021/12/27 02:40:28;;;;;;;3.08;1.55;;;17.80;39.80;;;;;;5110498;28;20610;-84
2021/12/27 02:43:08;;;;;;;1.50;1.35;;;17.90;39.80;;;;;;5110305;28;20172;-84
2021/12/27 02:45:36;;;;;;;1.85;1.25;;;17.90;39.60;;;;;;5111028;28;20233;-84
2021/12/27 02:48:02;;;;;;;2.22;1.25;;;17.80;39.60;;;;;;5110505;28;20159;-84
2021/12/27 02:50:29;;;;;;;2.08;1.52;;;17.90;39.60;;;;;;5110531;28;20206;-84
2021/12/27 02:52:58;;;;;;;2.20;1.55;;;17.80;39.80;;;;;;5110607;28;20167;-85
2021/12/27 02:55:28;;;;;;;2.58;1.23;;;17.80;39.90;;;;;;5110646;28;20156;-84
2021/12/27 02:57:56;;;;;;;3.33;1.30;;;17.80;39.80;;;;;;5110125;28;20227;-85
2021/12/27 03:00:28;;;;;;;1.83;1.50;;;17.80;39.80;;;;;;5110457;28;20171;-84
2021/12/27 03:02:54;;;;;;;2.42;1.40;;;17.80;39.80;;;;;;5110434;28;20176;-84
2021/12/27 03:05:21;;;;;;;2.63;1.42;;;17.80;39.60;;;;;;5110160;28;20153;-84
2021/12/27 03:07:48;;;;;;;2.88;1.60;;;17.80;39.90;;;;;;5109721;28;20168;-84
2021/12/27 03:10:15;;;;;;;1.77;1.30;;;17.80;39.90;;;;;;5110051;28;20191;-84
2021/12/27 03:12:43;;;;;;;1.90;1.30;;;17.90;39.70;;;;;;5110416;28;20540;-85
2021/12/27 03:15:12;;;;;;;1.65;1.25;;;17.80;39.70;;;;;;5110413;28;20166;-83
2021/12/27 03:17:41;;;;;;;1.58;1.40;;;17.80;39.80;;;;;;5110741;28;20156;-84
2021/12/27 03:20:12;;;;;;;1.75;1.55;;;17.80;39.80;;;;;;5109974;28;20171;-84
2021/12/27 03:22:41;;;;;;;2.35;1.48;;;17.80;39.90;;;;;;5109871;28;20159;-84
2021/12/27 03:25:08;;;;;;;1.92;1.42;;;17.70;40.10;;;;;;5128535;28;20160;-84
2021/12/27 03:27:34;;;;;;;2.17;1.52;;;17.70;40.00;;;;;;5109879;28;20198;-84
2021/12/27 03:30:05;;;;;;;1.80;1.42;;;17.70;40.00;;;;;;5109938;28;20188;-84
2021/12/27 03:32:32;;;;;;;1.35;1.20;;;17.80;40.00;;;;;;5109983;28;20167;-84
2021/12/27 03:35:08;;;;;;;2.60;1.65;;;17.80;39.90;;;;;;5110503;28;20163;-84
2021/12/27 03:37:35;;;;;;;2.30;1.60;;;17.70;40.30;;;;;;5111531;28;20144;-84
2021/12/27 03:40:01;;;;;;;1.75;1.40;;;17.70;39.80;;;;;;5109595;28;20156;-84
2021/12/27 03:42:27;;;;;;;2.25;1.40;;;17.70;39.80;;;;;;5109189;28;20172;-84
2021/12/27 03:44:53;;;;;;;2.05;1.50;;;17.70;39.80;;;;;;5109750;28;20175;-84
2021/12/27 03:47:18;;;;;;;1.52;1.38;;;17.70;39.80;;;;;;5109102;28;20224;-84
2021/12/27 03:49:44;;;;;;;1.63;1.38;;;17.70;39.90;;;;;;5109560;28;20211;-84
2021/12/27 03:52:19;;;;;;;2.58;1.40;;;17.70;39.60;;;;;;5109428;28;20226;-84
2021/12/27 03:54:47;;;;;;;2.53;1.40;;;17.80;39.80;;;;;;5109273;28;20628;-84
2021/12/27 03:57:15;;;;;;;2.33;1.60;;;17.70;39.80;;;;;;5109661;28;20163;-84
2021/12/27 03:59:54;;;;;;;2.78;1.55;;;17.80;39.60;;;;;;5109465;28;20152;-84
2021/12/27 04:02:21;;;;;;;1.73;1.40;;;17.70;39.90;;;;;;5111293;28;20178;-84
2021/12/27 04:04:47;;;;;;;1.77;1.40;;;17.70;39.90;;;;;;5109341;28;20156;-84
2021/12/27 04:07:15;;;;;;;1.63;1.33;;;17.70;39.80;;;;;;5109138;28;20168;-84
2021/12/27 04:09:41;;;;;;;2.00;1.33;;;17.60;39.80;;;;;;5108976;28;20210;-84
2021/12/27 04:12:10;;;;;;;2.15;1.42;;;17.70;40.00;;;;;;5109464;28;20179;-84
2021/12/27 04:14:40;;;;;;;1.88;1.55;;;17.60;39.80;;;;;;5108677;28;20183;-84
2021/12/27 04:17:06;;;;;;;2.25;1.50;;;17.60;39.80;;;;;;5108817;28;20160;-84
2021/12/27 04:19:33;;;;;;;2.08;1.60;;;17.60;39.80;;;;;;5092553;28;20191;-83
2021/12/27 04:22:00;;;;;;;1.85;1.25;;;17.60;39.90;;;;;;5091628;28;20171;-84
2021/12/27 04:24:30;;;;;;;2.08;1.50;;;17.80;39.60;;;;;;5109044;28;20232;-84
2021/12/27 04:26:56;;;;;;;1.63;1.30;;;17.80;39.40;;;;;;5127073;28;20167;-84
2021/12/27 04:29:22;;;;;;;2.13;1.50;;;17.80;39.40;;;;;;5108794;28;20195;-84
2021/12/27 04:31:49;;;;;;;2.47;1.40;;;17.90;39.20;;;;;;5092699;28;20191;-85
2021/12/27 04:34:15;;;;;;;1.67;1.33;;;17.90;38.90;;;;;;5109441;28;20531;-84
2021/12/27 04:36:44;;;;;;;2.10;1.42;;;17.80;39.10;;;;;;5126331;28;20155;-84
2021/12/27 04:39:10;;;;;;;2.15;1.60;;;17.90;38.90;;;;;;5108637;28;20190;-84
2021/12/27 04:41:37;;;;;;;1.45;1.35;;;17.90;39.20;;;;;;5108478;28;20160;-84
2021/12/27 04:44:04;;;;;;;1.67;1.45;;;17.90;39.10;;;;;;5091477;28;20171;-84
2021/12/27 04:46:30;;;;;;;2.13;1.30;;;17.90;39.00;;;;;;5109078;28;20215;-84
2021/12/27 04:48:56;;;;;;;1.85;1.38;;;17.90;39.00;;;;;;5092029;28;20576;-84
2021/12/27 04:51:22;;;;;;;2.70;1.70;;;18.00;38.70;;;;;;5108542;28;20182;-85
2021/12/27 04:53:51;;;;;;;2.50;1.38;;;18.00;38.50;;;;;;5108880;28;20220;-84
2021/12/27 04:56:17;;;;;;;1.98;1.58;;;18.00;38.30;;;;;;5108289;28;20171;-84
2021/12/27 04:58:45;;;;;;;2.20;1.73;;;18.10;38.40;;;;;;5108651;28;20244;-84
2021/12/27 05:01:11;;;;;;;1.65;1.40;;;18.10;38.50;;;;;;5108881;28;20159;-84
2021/12/27 05:03:37;;;;;;;2.60;1.30;;;18.10;38.20;;;;;;5108871;28;20164;-84
2021/12/27 05:06:04;;;;;;;3.17;1.58;;;18.20;38.30;;;;;;5091280;28;20176;-84
2021/12/27 05:08:31;;;;;;;3.75;1.67;;;18.20;38.20;;;;;;5091504;28;20168;-84
2021/12/27 05:10:58;;;;;;;1.33;1.23;;;18.20;38.10;;;;;;5109111;28;20586;-85
2021/12/27 05:13:31;;;;;;;1.75;1.17;;;18.20;37.90;;;;;;5108985;28;20160;-84
2021/12/27 05:16:01;;;;;;;1.52;1.38;;;18.20;37.70;;;;;;5108891;28;20239;-84
2021/12/27 05:18:26;;;;;;;1.42;1.33;;;18.30;37.80;;;;;;5108594;28;20180;-84
2021/12/27 05:20:54;;;;;;;1.98;1.17;;;18.30;37.80;;;;;;5108195;28;20187;-84
2021/12/27 05:23:20;;;;;;;2.53;1.33;;;18.30;37.80;;;;;;5111923;28;20149;-84
2021/12/27 05:25:46;;;;;;;1.70;1.35;;;18.30;37.60;;;;;;5095446;28;20565;-84
2021/12/27 05:28:12;;;;;;;1.50;1.40;;;18.30;37.80;;;;;;5111518;28;20153;-84
2021/12/27 05:30:38;;;;;;;1.77;1.30;;;18.30;37.80;;;;;;5114396;27;20172;-85
2021/12/27 05:33:04;;;;;;;1.90;1.70;;;18.30;37.50;;;;;;5132644;27;20179;-84
2021/12/27 05:35:31;;;;;;;1.55;1.33;;;18.30;37.40;;;;;;5132896;27;20152;-84
2021/12/27 05:37:57;;;;;;;2.78;1.17;;;18.40;37.40;;;;;;5131859;27;20163;-84
2021/12/27 05:40:24;;;;;;;1.27;1.17;;;18.40;37.50;;;;;;5132873;27;20170;-84
2021/12/27 05:42:51;;;;;;;1.83;1.50;;;18.40;37.60;;;;;;5115883;27;20200;-84
2021/12/27 05:45:17;;;;;;;1.98;1.65;;;18.30;37.50;;;;;;5115060;27;20152;-84
2021/12/27 05:47:44;;;;;;;1.80;1.25;;;18.30;37.60;;;;;;5135193;27;20233;-84
2021/12/27 05:50:10;;;;;;;1.48;1.23;;;18.40;37.50;;;;;;5152084;27;20277;-84
2021/12/27 05:52:36;;;;;;;1.70;1.25;;;18.40;37.60;;;;;;5118657;27;20170;-84
2021/12/27 05:55:04;;;;;;;2.00;1.45;;;18.40;37.40;;;;;;5161749;27;20256;-84
2021/12/27 05:57:31;;;;;;;2.05;1.33;;;18.40;37.50;;;;;;5114839;27;20152;-85
2021/12/27 05:59:57;;;;;;;1.50;1.30;;;18.40;37.40;;;;;;5115170;27;20170;-84
2021/12/27 06:02:23;;;;;;;1.35;1.20;;;18.40;37.20;;;;;;5119109;27;20604;-84
2021/12/27 06:04:51;;;;;;;1.27;1.15;;;18.40;37.30;;;;;;5135362;27;20170;-85
2021/12/27 06:07:18;;;;;;;1.55;1.20;;;18.40;37.40;;;;;;5135534;27;20180;-83
2021/12/27 06:09:44;;;;;;;1.60;1.10;;;18.40;37.30;;;;;;5152992;27;20186;-83
2021/12/27 06:12:09;;;;;;;1.85;1.30;;;18.40;37.80;;;;;;5152288;27;20158;-82
2021/12/27 06:14:38;;;;;;;2.10;1.60;;;18.40;37.10;;;;;;5116221;27;20163;-84
2021/12/27 06:17:07;;;;;;;1.83;1.20;;;18.40;37.30;;;;;;5148439;27;20147;-84
2021/12/27 06:19:33;;;;;;;1.20;1.00;;;18.40;37.90;;;;;;5145174;27;20166;-85
2021/12/27 06:21:59;;;;;;;1.38;1.20;;;18.40;37.40;;;;;;5113809;27;20162;-84
2021/12/27 06:24:25;;;;;;;1.98;1.65;;;18.40;37.40;;;;;;5130835;27;20155;-85
2021/12/27 06:26:50;;;;;;;1.40;1.30;;;18.40;37.30;;;;;;5114829;27;20158;-84
2021/12/27 06:29:16;;;;;;;1.65;1.20;;;18.50;37.30;;;;;;5131329;27;20190;-84
2021/12/27 06:31:43;;;;;;;1.88;1.30;;;18.50;37.40;;;;;;5130259;27;20158;-84
2021/12/27 06:34:08;;;;;;;1.65;1.33;;;18.40;37.30;;;;;;5131252;27;20163;-84
2021/12/27 06:36:35;;;;;;;2.17;1.25;;;18.50;37.00;;;;;;5133305;27;20165;-84
2021/12/27 06:39:03;;;;;;;1.63;1.52;;;18.40;36.90;;;;;;5133812;27;20624;-84
2021/12/27 06:41:30;;;;;;;1.17;1.05;;;18.50;37.10;;;;;;5119122;27;20159;-85
2021/12/27 06:43:55;;;;;;;2.63;1.20;;;18.50;37.00;;;;;;5135692;27;20612;-86
2021/12/27 06:46:21;;;;;;;1.10;1.00;;;18.50;37.00;;;;;;5125048;27;20229;-86
2021/12/27 06:48:50;;;;;;;1.38;1.23;;;18.50;36.90;;;;;;5112875;27;20680;-86
2021/12/27 06:51:19;;;;;;;1.33;1.10;;;18.50;36.90;;;;;;5096049;27;20247;-86
2021/12/27 06:53:44;;;;;;;1.52;1.10;;;18.50;37.70;;;;;;5095930;27;20185;-85
2021/12/27 06:56:14;;;;;;;1.50;1.20;;;18.50;37.00;;;;;;5113527;27;20199;-86
2021/12/27 06:58:40;;;;;;;1.45;1.15;;;18.50;36.90;;;;;;5130154;27;20155;-85
2021/12/27 07:01:06;;;;;;;1.40;1.30;;;18.50;36.90;;;;;;5112948;27;20155;-85
2021/12/27 07:03:31;;;;;;;1.90;1.35;;;18.50;37.10;;;;;;5120126;27;20159;-85
2021/12/27 07:05:59;;;;;;;1.60;1.30;;;18.50;37.20;;;;;;5102594;27;20651;-85
2021/12/27 07:08:28;;;;;;;1.67;1.27;;;18.50;37.20;;;;;;5103120;27;20189;-85
2021/12/27 07:10:53;;;;;;;1.30;1.20;;;18.50;36.90;;;;;;5102374;27;20209;-85
2021/12/27 07:13:25;;;;;;;1.60;1.00;;;18.50;36.90;;;;;;5089725;27;20156;-85
2021/12/27 07:15:52;;;;;;;1.20;1.10;;;18.50;36.90;;;;;;5078060;28;20238;-85
2021/12/27 07:18:22;;;;;;;1.40;1.27;;;18.50;37.00;;;;;;5076595;28;20280;-85
2021/12/27 07:20:50;;;;;;;1.30;1.20;;;18.50;37.00;;;;;;5044604;28;20204;-85
2021/12/27 07:23:16;;;;;;;1.55;1.45;;;18.50;36.90;;;;;;5060955;28;20159;-84
2021/12/27 07:25:41;;;;;;;1.80;1.52;;;18.60;36.90;;;;;;5059693;28;20267;-85
2021/12/27 07:28:07;;;;;;;1.52;1.20;;;18.60;36.80;;;;;;5059188;28;20165;-83
2021/12/27 07:30:32;;;;;;;2.28;1.23;;;18.60;37.00;;;;;;5076051;28;20377;-85
2021/12/27 07:32:58;;;;;;;2.35;1.23;;;18.60;37.00;;;;;;5060959;28;20247;-84
2021/12/27 07:35:24;;;;;;;1.52;1.20;;;18.50;36.90;;;;;;5060884;28;20264;-85
2021/12/27 07:37:52;;;;;;;1.10;1.00;;;18.50;36.80;;;;;;5060785;28;20168;-85
2021/12/27 07:40:20;;;;;;;1.30;1.20;;;18.50;36.80;;;;;;5077233;28;20165;-85
2021/12/27 07:42:45;;;;;;;1.42;1.10;;;18.60;36.90;;;;;;5060222;28;20641;-85
2021/12/27 07:45:13;;;;;;;2.13;1.25;;;18.60;37.00;;;;;;5042911;28;20172;-85
2021/12/27 07:47:39;;;;;;;1.33;1.13;;;18.60;37.00;;;;;;5093480;27;20218;-86
2021/12/27 07:50:05;;;;;;;2.15;1.30;;;18.60;36.70;;;;;;5118547;27;20329;-85
2021/12/27 07:52:31;;;;;;;2.15;1.30;;;18.60;36.60;;;;;;5136454;27;20156;-85
2021/12/27 07:54:57;;;;;;;1.23;1.08;;;18.50;36.80;;;;;;5102845;27;20688;-85
2021/12/27 07:57:23;;;;;;;1.67;1.40;;;18.60;36.80;;;;;;5136084;27;20152;-85
2021/12/27 07:59:49;;;;;;;1.67;1.10;;;18.60;36.80;;;;;;5118217;27;20159;-85
2021/12/27 08:02:16;;;;;;;1.73;1.20;;;18.60;36.50;;;;;;5135459;27;20175;-85
2021/12/27 08:04:42;;;;;;;2.83;1.15;;;18.60;36.60;;;;;;5135524;27;20152;-85
2021/12/27 08:07:08;;;;;;;2.10;1.33;;;18.60;36.60;;;;;;5118722;27;20198;-84
2021/12/27 08:09:33;;;;;;;1.23;1.02;;;18.60;36.50;;;;;;5119766;27;20252;-85
2021/12/27 08:11:59;;;;;;;1.75;1.40;;;18.60;36.60;;;;;;5119641;27;20152;-85
2021/12/27 08:14:25;;;;;;;2.25;1.20;;;18.60;36.50;;;;;;5119951;27;20162;-85
2021/12/27 08:16:50;;;;;;;1.48;1.25;;;18.60;36.50;;;;;;5137276;27;20191;-85
2021/12/27 08:19:16;;;;;;;2.20;1.27;;;18.60;36.30;;;;;;5136620;27;20242;-84
2021/12/27 08:21:43;;;;;;;1.45;1.15;;;18.60;36.70;;;;;;5137345;27;20159;-85
2021/12/27 08:24:10;;;;;;;1.73;1.48;;;18.60;36.40;;;;;;5119096;27;20209;-85
2021/12/27 08:26:36;;;;;;;1.55;1.30;;;18.60;36.50;;;;;;5135510;27;20163;-85
2021/12/27 08:29:04;;;;;;;1.33;1.00;;;18.60;36.60;;;;;;5137821;27;20236;-85
2021/12/27 08:31:30;;;;;;;1.02;0.95;;;18.60;36.50;;;;;;5119447;28;20148;-85
2021/12/27 08:33:55;;;;;;;1.60;1.20;;;18.70;36.50;;;;;;5137303;27;20166;-85
2021/12/27 08:36:21;;;;;;;1.73;1.17;;;18.70;36.60;;;;;;5102255;28;20159;-86
2021/12/27 08:38:50;;;;;;;1.10;0.98;;;18.60;36.70;;;;;;5136122;27;20256;-85
2021/12/27 08:41:16;;;;;;;1.38;1.02;;;18.60;36.40;;;;;;5137220;27;20163;-85
2021/12/27 08:43:43;;;;;;;2.03;1.38;;;18.60;36.60;;;;;;5119637;28;20162;-85
2021/12/27 08:46:08;;;;;;;1.40;1.10;;;18.70;36.50;;;;;;5125061;27;20747;-85
2021/12/27 08:48:34;;;;;;;1.83;1.33;;;18.70;36.20;;;;;;5122029;27;20204;-85
2021/12/27 08:51:00;;;;;;;1.25;1.00;;;18.60;36.40;;;;;;5123756;27;20151;-85
2021/12/27 08:53:26;;;;;;;1.27;1.17;;;18.70;36.30;;;;;;5105967;27;20249;-85
2021/12/27 08:55:51;;;;;;;1.67;1.40;;;18.70;36.30;;;;;;5124479;27;20664;-85
2021/12/27 08:58:17;;;;;;;1.40;1.13;;;18.70;36.20;;;;;;5146328;27;20154;-85
2021/12/27 09:00:43;;;;;;;1.52;1.10;;;18.70;36.50;;;;;;5112386;27;20166;-85
2021/12/27 09:03:11;;;;;;;1.48;1.10;;;18.70;36.40;;;;;;5111997;27;20249;-86
2021/12/27 09:05:38;;;;;;;1.40;1.30;;;18.60;36.60;;;;;;5127323;27;20179;-85
2021/12/27 09:08:03;;;;;;;3.08;1.10;;;18.70;36.10;;;;;;5119821;27;20295;-85
2021/12/27 09:10:29;;;;;;;1.00;0.90;;;18.70;36.40;;;;;;5090930;27;20718;-84
2021/12/27 09:12:55;;;;;;;1.42;1.15;;;18.70;36.60;;;;;;5114286;27;20215;-84
2021/12/27 09:15:21;;;;;;;1.50;1.25;;;18.70;36.50;;;;;;5131941;27;20198;-85
2021/12/27 09:17:47;;;;;;;1.58;1.23;;;18.70;36.60;;;;;;5105440;27;20156;-84
2021/12/27 09:20:13;;;;;;;1.75;1.08;;;18.70;36.50;;;;;;5122533;27;20160;-84
2021/12/27 09:22:39;;;;;;;1.65;1.23;;;18.70;36.40;;;;;;5123219;27;20216;-85
2021/12/27 09:25:07;;;;;;;1.40;1.10;;;18.70;36.40;;;;;;5141566;27;20164;-84
2021/12/27 09:27:33;;;;;;;1.10;1.00;;;18.70;36.30;;;;;;5105827;27;20190;-84
2021/12/27 09:30:00;;;;;;;1.48;1.27;;;18.70;36.30;;;;;;5087543;27;20708;-84
2021/12/27 09:32:25;;;;;;;2.22;1.55;;;18.70;36.60;;;;;;5088426;27;20533;-84
2021/12/27 09:34:52;;;;;;;1.30;1.17;;;18.70;36.20;;;;;;5105339;27;20154;-85
2021/12/27 09:37:18;;;;;;;1.27;1.08;;;18.70;36.10;;;;;;5142586;27;20159;-84
2021/12/27 09:39:44;;;;;;;1.73;1.33;;;18.70;36.00;;;;;;5107382;27;20166;-84
2021/12/27 09:42:09;;;;;;;1.95;1.65;;;18.80;36.20;;;;;;5091086;27;20183;-84
2021/12/27 09:44:36;;;;;;;1.30;1.13;;;18.70;36.30;;;;;;5105821;27;20164;-84
2021/12/27 09:47:03;;;;;;;1.27;1.17;;;18.70;36.10;;;;;;5123116;27;20219;-84
2021/12/27 09:49:29;;;;;;;1.60;1.30;;;18.70;36.30;;;;;;5125013;27;20186;-84
2021/12/27 09:51:56;;;;;;;1.20;1.10;;;18.80;36.30;;;;;;5105693;27;20159;-84
2021/12/27 09:54:23;;;;;;;1.58;1.27;;;18.80;36.30;;;;;;5104845;27;20199;-85
2021/12/27 09:56:49;;;;;;;2.45;1.10;;;18.80;36.10;;;;;;5088408;27;20163;-84
2021/12/27 09:59:15;;;;;;;1.50;1.40;;;18.70;36.10;;;;;;5104574;27;20516;-85
2021/12/27 10:01:40;;;;;;;1.65;1.40;;;18.80;36.10;;;;;;5090585;27;20167;-84
2021/12/27 10:04:06;;;;;;;2.47;1.27;;;18.70;36.00;;;;;;5108756;27;20167;-84
2021/12/27 10:06:32;;;;;;;2.75;1.15;;;18.80;36.00;;;;;;5108331;27;20218;-84
2021/12/27 10:08:59;;;;;;;1.15;1.05;;;18.80;36.00;;;;;;5090864;27;20824;-84
2021/12/27 10:11:31;;;;;;;1.27;1.17;;;18.80;35.80;;;;;;5126342;27;20177;-84
2021/12/27 10:14:15;;;;;;;2.47;1.20;;;18.80;36.20;;;;;;5126779;27;20158;-84
2021/12/27 10:16:55;;;;;;;2.20;1.25;;;18.90;36.00;;;;;;5112483;27;20150;-84
2021/12/27 10:19:22;;;;;;;1.75;1.30;;;18.80;35.90;;;;;;5109464;27;20159;-83
2021/12/27 10:21:50;;;;;;;1.15;1.00;;;18.90;36.10;;;;;;5109665;27;20243;-84
2021/12/27 10:24:20;;;;;;;2.85;1.10;;;18.80;35.80;;;;;;5109407;27;20159;-84
2021/12/27 10:26:47;;;;;;;1.30;1.00;;;18.90;36.10;;;;;;5092138;27;20160;-84
2021/12/27 10:29:17;;;;;;;1.88;1.30;;;18.90;36.00;;;;;;5126845;27;20269;-84
2021/12/27 10:32:06;;;;;;;2.22;1.20;;;18.90;36.20;;;;;;5111839;27;20180;-84
2021/12/27 10:34:37;;;;;;;1.40;1.20;;;18.90;36.00;;;;;;5112605;27;20175;-84
2021/12/27 10:37:10;;;;;;;1.33;1.20;;;18.90;36.00;;;;;;5096002;27;20155;-84
2021/12/27 10:39:48;;;;;;;1.10;1.00;;;18.90;36.10;;;;;;5129601;27;20495;-84
2021/12/27 10:42:17;;;;;;;1.10;1.00;;;18.90;36.10;;;;;;5110445;27;20213;-84
2021/12/27 10:44:43;;;;;;;1.60;1.30;;;19.00;36.30;;;;;;5127299;27;20175;-83
2021/12/27 10:47:29;;;;;;;3.92;1.08;;;19.00;36.10;;;;;;5102988;27;20251;-84
2021/12/27 10:50:02;;;;;;;1.70;1.20;;;19.00;36.20;;;;;;5145995;27;20179;-84
2021/12/27 10:52:47;;;;;;;1.48;1.15;;;19.00;36.30;;;;;;5113492;27;20224;-85
2021/12/27 10:55:16;;;;;;;2.28;1.10;;;19.00;36.40;;;;;;5112580;27;20171;-84
2021/12/27 10:57:43;;;;;;;3.15;1.25;;;19.00;36.30;;;;;;5130000;27;20152;-83
2021/12/27 11:00:29;;;;;;;2.90;1.27;;;19.00;36.00;;;;;;5091513;28;20322;-84
2021/12/27 11:02:55;;;;;;;1.42;1.10;;;19.10;36.10;;;;;;5125325;28;20202;-83
2021/12/27 11:05:23;;;;;;;2.45;1.17;;;19.10;36.20;;;;;;5109293;27;20156;-85
2021/12/27 11:07:59;;;;;;;3.08;1.00;;;19.10;36.30;;;;;;5111102;27;20167;-83
2021/12/27 11:10:25;;;;;;;1.83;1.05;;;19.10;36.40;;;;;;5112265;27;20279;-84
2021/12/27 11:12:50;;;;;;;4.30;1.42;;;19.10;36.50;;;;;;5109423;27;20187;-84
2021/12/27 11:15:20;;;;;;;3.70;1.10;;;19.00;36.40;;;;;;5129232;27;20344;-83
2021/12/27 11:17:46;;;;;;;3.22;1.10;;;19.00;36.70;;;;;;5109626;27;20537;-82
2021/12/27 11:20:12;;;;;;;2.42;1.05;;;19.10;36.90;;;;;;5125685;27;20151;-83
2021/12/27 11:22:41;;;;;;;4.20;1.20;;;19.10;36.80;;;;;;5126115;27;20171;-83
2021/12/27 11:25:19;;;;;;;3.53;1.33;;;19.10;37.00;;;;;;5127669;27;20167;-83
2021/12/27 11:27:45;;;;;;;3.70;1.30;;;19.10;36.80;;;;;;5096634;27;20167;-83
2021/12/27 11:30:12;;;;;;;3.78;1.42;;;19.10;36.70;;;;;;5112340;27;20187;-84
2021/12/27 11:32:59;;;;;;;6.57;1.50;;;19.10;36.70;;;;;;5127920;27;20164;-85
2021/12/27 11:35:26;;;;;;;7.15;1.50;;;19.10;37.10;;;;;;5124005;28;20171;-83
2021/12/27 11:37:57;;;;;;;4.88;1.60;;;19.10;37.30;;;;;;5125985;27;20161;-83
2021/12/27 11:40:26;;;;;;;4.07;1.40;;;19.10;37.30;;;;;;5126375;27;20185;-84
2021/12/27 11:42:55;;;;;;;3.85;1.10;;;19.10;37.40;;;;;;5125581;27;20188;-84
2021/12/27 11:45:44;;;;;;;1.65;1.30;;;19.10;37.50;;;;;;5127224;27;20667;-84
2021/12/27 11:48:18;;;;;;;4.18;1.30;;;19.10;37.40;;;;;;5104167;28;20177;-84
2021/12/27 11:51:03;;;;;;;5.15;1.27;;;19.10;37.50;;;;;;5083690;28;20208;-84
2021/12/27 11:53:44;;;;;;;3.30;1.10;;;19.20;37.30;;;;;;5100524;28;20176;-85
2021/12/27 11:56:11;;;;;;;4.55;1.50;;;19.10;37.20;;;;;;5068470;28;20180;-84
2021/12/27 11:58:39;;;;;;;4.68;1.35;;;19.20;37.30;;;;;;5084592;28;20153;-85
2021/12/27 12:01:26;;;;;;;7.20;1.30;;;19.10;37.20;;;;;;5089832;28;20319;-84
2021/12/27 12:03:57;;;;;;;4.70;1.35;;;19.20;37.50;;;;;;5101002;28;20184;-84
2021/12/27 12:06:40;;;;;;;5.15;1.40;;;19.20;37.60;;;;;;5096240;28;20177;-83
2021/12/27 12:09:15;;;;;;;4.97;1.27;;;19.20;37.80;;;;;;5103565;28;20195;-83
2021/12/27 12:11:41;;;;;;;2.92;1.42;;;19.20;37.90;;;;;;5082378;28;20188;-83
2021/12/27 12:14:24;;;;;;;3.05;1.40;;;19.20;38.00;;;;;;5100209;27;20672;-82
2021/12/27 12:16:52;;;;;;;7.25;1.60;;;19.20;38.10;;;;;;5110889;27;20186;-84
2021/12/27 12:19:17;;;;;;;3.78;1.70;;;19.20;38.00;;;;;;5114580;27;20174;-83
2021/12/27 12:21:44;;;;;;;6.95;1.75;;;19.20;37.90;;;;;;5093840;27;20178;-83
2021/12/27 12:24:21;;;;;;;6.70;1.33;;;19.20;38.00;;;;;;5111492;27;20155;-83
2021/12/27 12:26:48;;;;;;;3.95;1.15;;;19.20;38.50;;;;;;5110903;27;20779;-83
2021/12/27 12:29:13;;;;;;;6.38;1.23;;;19.20;38.10;;;;;;5110407;28;20179;-83
2021/12/27 12:31:39;;;;;;;2.90;1.20;;;19.20;37.90;;;;;;5127572;27;20170;-83
2021/12/27 12:34:09;;;;;;;4.95;1.58;;;19.20;37.90;;;;;;5109055;27;20260;-84
2021/12/27 12:36:52;;;;;;;3.78;1.40;;;19.20;37.60;;;;;;5128743;27;20228;-85
2021/12/27 12:39:19;;;;;;;4.65;1.27;;;19.20;37.80;;;;;;5130270;27;20163;-84
2021/12/27 12:41:50;;;;;;;3.35;1.52;;;19.20;37.80;;;;;;5110100;27;20151;-84
2021/12/27 12:44:17;;;;;;;5.22;1.30;;;19.20;37.30;;;;;;5126310;28;20163;-84
2021/12/27 12:46:49;;;;;;;4.18;1.27;;;19.30;37.60;;;;;;5093124;28;20225;-84
2021/12/27 12:49:19;;;;;;;4.43;1.52;;;19.30;37.80;;;;;;5092830;28;20194;-84
2021/12/27 12:51:49;;;;;;;3.25;1.20;;;19.30;37.80;;;;;;5108249;28;20193;-84
2021/12/27 12:54:27;;;;;;;3.15;1.30;;;19.30;38.00;;;;;;5107706;28;20533;-84